Saint James, MN

10:11 AM CDT on May 23, 2015 (GMT -0500)
Saint James Municipal | | Change Station
CLOSE
Current Station
Airport
Location: St. James,
Elevation: 1066 ft
Nearby Weather Stations

Elev 1066 ft 43.99 °N, 94.56 °W | Updated 16 minutes ago

Mostly Cloudy
Mostly Cloudy
63 °F
Feels Like 63 °F
N
6
Wind Variable Wind from East

Today
High -- | Low -- °F
--% Chance of Precip.
Yesterday
High -- | Low -- °F
Precip. -- in
5:45 AM 8:46 PM
Waxing Crescent, 30% visible
Pressure 30.25 in
Visibility 10.0 miles
Clouds Scattered Clouds 9000 ft
Dew Point 52 °F
Humidity 68%
Rainfall 0.03 in
Snow Depth Not available.
UV 5 out of 12
Pollen 6.40 out of 12
Air Quality Not available.
Flu Activity Sporadic
METAR KJYG 231455Z AUTO 09005KT 10SM SCT090 17/11 A3025 RMK AO2

More Conditions Fewer Conditions

Pressure 30.25 in
Visibility 10.0 miles
Clouds Scattered Clouds 9000 ft
Dew Point 52 °F
Humidity 68%
Rainfall 0.03 in
Snow Depth Not available.
UV 5 out of 12
Pollen 6.40 out of 12
Air Quality Not available.
Flu Activity Sporadic
METAR KJYG 231455Z AUTO 09005KT 10SM SCT090 17/11 A3025 RMK AO2

More Conditions Fewer Conditions

10-Day Weather Forecast

Almanac

Astronomy

May. 23, 2015 Rise Set
Actual Time
Civil Twilight
Nautical Twilight
Astronomical Twilight
Moon
Length of Visible Light
Length of Day
Tomorrow will be .
, % of the Moon is Illuminated

Today's Extremes

State Highs State Lows

Community

WunderPhotos

Upload Photos

1,823,488 photos uploaded!

WunderBlogs® & News

Nearby

Air Quality

  Air Quality AQ Index Pollutant
Not available.

Snow Depth

Station Depth Elevation

Earthquake Activity

City Distance Mag. Time & Date
Minimum magnitude displayed is 2.5.

Coastal Water Temperatures

Place Temperature

Stations

Nearby Weather Stations

Station Location Temp. Windchill Dew Point Humidity Wind Precip. Elev Updated Type